Time;durP1;ratioP1;P1;durP2;ratioP2;P2;SDS_P1;SDS_P2;PMS_P1;PMS_P2;Temp;Humidity;BMP_temperature;BMP_pressure;BME280_temperature;BME280_humidity;BME280_pressure;Samples;Min_cycle;Max_cycle;Signal;HPM_P1;HPM_P2
2021/08/25 00:02:09;;;;;;;26.35;23.55;;;15.60;88.50;;;;;;5027063;28;20034;-74
2021/08/25 00:04:42;;;;;;;27.92;25.25;;;15.60;88.60;;;;;;5021824;28;20117;-72
2021/08/25 00:07:08;;;;;;;27.55;24.73;;;15.60;88.70;;;;;;5015790;28;20120;-73
2021/08/25 00:09:35;;;;;;;28.05;25.23;;;15.50;88.80;;;;;;5033481;28;20041;-80
2021/08/25 00:12:01;;;;;;;28.45;25.52;;;15.50;88.70;;;;;;5039690;28;20029;-75
2021/08/25 00:14:28;;;;;;;29.05;26.15;;;15.50;88.90;;;;;;5036542;28;20033;-73
2021/08/25 00:16:54;;;;;;;29.52;26.48;;;15.50;89.00;;;;;;5028931;28;20109;-72
2021/08/25 00:19:19;;;;;;;28.92;26.23;;;15.40;89.00;;;;;;5032785;28;20065;-71
2021/08/25 00:21:45;;;;;;;30.63;27.42;;;15.40;89.00;;;;;;5029773;28;20116;-73
2021/08/25 00:24:11;;;;;;;29.35;26.38;;;15.40;89.10;;;;;;5034607;28;20053;-74
2021/08/25 00:26:36;;;;;;;30.48;27.08;;;15.40;89.20;;;;;;5032047;28;20468;-75
2021/08/25 00:29:02;;;;;;;30.27;27.05;;;15.40;89.20;;;;;;5025219;28;20117;-73
2021/08/25 00:31:28;;;;;;;31.88;27.42;;;15.40;89.30;;;;;;5025493;28;20034;-73
2021/08/25 00:33:53;;;;;;;30.80;27.48;;;15.40;89.30;;;;;;5026763;28;20124;-74
2021/08/25 00:36:19;;;;;;;32.35;29.13;;;15.30;89.40;;;;;;5017757;28;20030;-73
2021/08/25 00:38:45;;;;;;;31.73;28.42;;;15.30;89.30;;;;;;5024480;28;20037;-74
2021/08/25 00:41:11;;;;;;;32.55;29.40;;;15.30;89.30;;;;;;5019005;28;20029;-72
2021/08/25 00:43:36;;;;;;;33.05;28.90;;;15.30;89.50;;;;;;5032845;28;20038;-73
2021/08/25 00:46:03;;;;;;;35.38;31.48;;;15.30;89.70;;;;;;5025539;28;20103;-75
2021/08/25 00:48:29;;;;;;;35.00;31.33;;;15.20;89.80;;;;;;5036418;28;20060;-73
2021/08/25 00:50:55;;;;;;;36.47;32.90;;;15.20;90.00;;;;;;5032421;28;20061;-73
2021/08/25 00:53:22;;;;;;;36.78;32.90;;;15.20;90.00;;;;;;5035472;28;20025;-72
2021/08/25 00:55:49;;;;;;;35.72;32.03;;;15.30;90.00;;;;;;5041118;28;20039;-72
2021/08/25 00:58:15;;;;;;;34.53;31.08;;;15.20;89.90;;;;;;5031250;28;20029;-72
2021/08/25 01:00:46;;;;;;;36.15;32.22;;;15.20;89.90;;;;;;5044035;28;20029;-74
2021/08/25 01:03:17;;;;;;;37.78;33.97;;;15.20;89.90;;;;;;5017651;28;20033;-72
2021/08/25 01:05:44;;;;;;;37.10;32.40;;;15.10;90.00;;;;;;5020926;28;20040;-73
2021/08/25 01:08:15;;;;;;;39.80;35.17;;;15.10;90.30;;;;;;5029265;28;20432;-73
2021/08/25 01:10:41;;;;;;;38.80;34.60;;;15.10;90.40;;;;;;5025869;28;20054;-74
2021/08/25 01:13:09;;;;;;;36.83;33.13;;;15.10;90.30;;;;;;5023019;28;20079;-74
2021/08/25 01:15:37;;;;;;;37.80;33.85;;;15.10;90.30;;;;;;5012621;28;20049;-72
2021/08/25 01:18:11;;;;;;;37.33;33.35;;;15.10;90.40;;;;;;5017619;28;20086;-73
2021/08/25 01:20:38;;;;;;;41.72;35.17;;;15.10;90.30;;;;;;5020649;28;20034;-73
2021/08/25 01:23:04;;;;;;;37.83;34.03;;;15.00;90.30;;;;;;5027545;28;20073;-72
2021/08/25 01:25:32;;;;;;;36.60;32.72;;;15.00;90.40;;;;;;4999155;28;20030;-75
2021/08/25 01:28:00;;;;;;;40.10;35.95;;;15.00;90.50;;;;;;5001438;28;20484;-71
2021/08/25 01:30:30;;;;;;;35.85;32.22;;;15.00;90.40;;;;;;5010100;28;20057;-72
2021/08/25 01:32:59;;;;;;;39.70;35.67;;;14.90;90.50;;;;;;4991185;28;20441;-72
2021/08/25 01:35:38;;;;;;;39.30;34.05;;;14.90;90.60;;;;;;4992827;28;20117;-73
2021/08/25 01:38:08;;;;;;;37.58;33.58;;;14.90;90.60;;;;;;4999139;28;20069;-72
2021/08/25 01:40:37;;;;;;;38.30;34.40;;;14.90;90.60;;;;;;5018353;28;20042;-74
2021/08/25 01:43:03;;;;;;;37.22;33.55;;;14.90;90.70;;;;;;5020769;28;20382;-79
2021/08/25 01:45:30;;;;;;;37.92;33.92;;;14.80;90.70;;;;;;5015222;28;20033;-72
2021/08/25 01:47:56;;;;;;;38.33;34.33;;;14.90;90.80;;;;;;5018180;28;20527;-74
2021/08/25 01:50:21;;;;;;;38.42;34.35;;;14.80;90.80;;;;;;5029995;28;20464;-73
2021/08/25 01:52:48;;;;;;;38.63;34.72;;;14.80;90.80;;;;;;5028066;28;20049;-73
2021/08/25 01:55:14;;;;;;;40.75;36.40;;;14.80;90.80;;;;;;5030812;28;20042;-73
2021/08/25 01:57:39;;;;;;;41.17;36.67;;;14.80;91.00;;;;;;5016889;28;20109;-75
2021/08/25 02:00:06;;;;;;;38.35;34.28;;;14.80;91.00;;;;;;5012237;28;20053;-74
2021/08/25 02:02:31;;;;;;;39.80;35.67;;;14.80;91.00;;;;;;5020657;28;20030;-73
2021/08/25 02:04:57;;;;;;;38.08;34.28;;;14.80;90.90;;;;;;5024044;28;20022;-72
2021/08/25 02:07:23;;;;;;;38.20;34.40;;;14.80;90.80;;;;;;5010487;28;20041;-72
2021/08/25 02:09:48;;;;;;;40.92;36.90;;;14.70;90.70;;;;;;5012748;28;20413;-74
2021/08/25 02:12:14;;;;;;;38.78;34.72;;;14.70;90.80;;;;;;5012307;28;20358;-73
2021/08/25 02:14:39;;;;;;;39.55;35.45;;;14.70;90.90;;;;;;5016593;28;20047;-73
2021/08/25 02:17:06;;;;;;;39.83;35.63;;;14.60;90.80;;;;;;5023447;28;20392;-72
2021/08/25 02:19:33;;;;;;;42.03;37.63;;;14.60;90.90;;;;;;5022128;28;20040;-72
2021/08/25 02:21:59;;;;;;;41.63;37.13;;;14.60;90.80;;;;;;5018357;28;20034;-72
2021/08/25 02:24:24;;;;;;;42.25;37.70;;;14.60;91.00;;;;;;5026114;28;20124;-71
2021/08/25 02:26:50;;;;;;;41.22;36.85;;;14.60;91.00;;;;;;5027285;28;20029;-72
2021/08/25 02:29:16;;;;;;;41.70;37.33;;;14.60;91.00;;;;;;5016609;28;20373;-74
2021/08/25 02:31:41;;;;;;;45.22;40.35;;;14.60;91.10;;;;;;5019897;28;20389;-73
2021/08/25 02:34:07;;;;;;;43.75;38.90;;;14.50;91.30;;;;;;5013428;28;20022;-74
2021/08/25 02:36:33;;;;;;;44.88;40.08;;;14.50;91.40;;;;;;5029505;28;20056;-72
2021/08/25 02:38:58;;;;;;;40.75;36.45;;;14.60;91.30;;;;;;5029537;28;20087;-72
2021/08/25 02:41:24;;;;;;;41.13;36.90;;;14.50;91.20;;;;;;5029223;28;20068;-73
2021/08/25 02:43:50;;;;;;;41.45;36.95;;;14.50;91.20;;;;;;5020326;28;20540;-73
2021/08/25 02:46:16;;;;;;;42.40;37.90;;;14.50;91.20;;;;;;5026822;28;20187;-72
2021/08/25 02:48:42;;;;;;;41.13;36.83;;;14.50;91.20;;;;;;5029814;28;20060;-73
2021/08/25 02:51:08;;;;;;;45.90;40.72;;;14.40;91.30;;;;;;5028616;28;20064;-73
2021/08/25 02:53:34;;;;;;;40.95;36.53;;;14.40;91.50;;;;;;5030450;28;20034;-72
2021/08/25 02:55:59;;;;;;;44.38;39.67;;;14.40;91.50;;;;;;5030336;28;20030;-74
2021/08/25 02:58:25;;;;;;;42.45;37.88;;;14.40;91.50;;;;;;5029090;28;20073;-74
2021/08/25 03:00:51;;;;;;;44.00;39.20;;;14.40;91.60;;;;;;5029978;28;20491;-73
2021/08/25 03:03:17;;;;;;;46.65;40.58;;;14.40;91.60;;;;;;5028516;28;20038;-73
2021/08/25 03:05:44;;;;;;;42.20;37.83;;;14.40;91.60;;;;;;5030399;28;20427;-73
2021/08/25 03:08:09;;;;;;;45.05;39.90;;;14.40;91.70;;;;;;5029785;28;20034;-72
2021/08/25 03:10:36;;;;;;;46.08;39.72;;;14.40;91.80;;;;;;5028034;28;20040;-73
2021/08/25 03:13:02;;;;;;;45.75;39.97;;;14.40;91.70;;;;;;5029754;28;20033;-73
2021/08/25 03:15:28;;;;;;;47.35;41.75;;;14.40;91.70;;;;;;5030195;28;20033;-76
2021/08/25 03:17:53;;;;;;;44.85;40.00;;;14.30;91.80;;;;;;5030208;28;20088;-75
2021/08/25 03:20:20;;;;;;;45.95;40.53;;;14.30;91.90;;;;;;5028363;28;20021;-72
2021/08/25 03:22:45;;;;;;;44.70;39.63;;;14.40;91.90;;;;;;5035524;28;20050;-72
2021/08/25 03:25:11;;;;;;;43.45;38.90;;;14.40;91.80;;;;;;5027832;28;20049;-72
2021/08/25 03:27:37;;;;;;;48.25;39.97;;;14.40;91.80;;;;;;5030361;28;20048;-75
2021/08/25 03:30:04;;;;;;;45.03;40.08;;;14.30;91.70;;;;;;5029381;28;20409;-72
2021/08/25 03:32:29;;;;;;;45.10;40.30;;;14.30;91.70;;;;;;5027624;28;20037;-73
2021/08/25 03:34:55;;;;;;;43.40;38.30;;;14.30;91.80;;;;;;5028639;28;20492;-72
2021/08/25 03:37:20;;;;;;;43.03;37.88;;;14.30;91.70;;;;;;5029361;28;23226;-71
2021/08/25 03:39:46;;;;;;;40.83;36.50;;;14.30;91.80;;;;;;5028825;28;20049;-73
2021/08/25 03:42:12;;;;;;;42.08;37.58;;;14.30;91.70;;;;;;5026792;28;20026;-77
2021/08/25 03:44:39;;;;;;;41.17;36.80;;;14.20;91.60;;;;;;5030269;28;20037;-73
2021/08/25 03:47:06;;;;;;;41.30;36.83;;;14.20;91.60;;;;;;5027724;28;20041;-72
2021/08/25 03:49:33;;;;;;;42.60;37.60;;;14.20;91.70;;;;;;5029945;28;20034;-73
2021/08/25 03:51:59;;;;;;;42.30;37.78;;;14.10;91.70;;;;;;5037864;28;20060;-72
2021/08/25 03:54:25;;;;;;;42.13;37.45;;;14.10;91.80;;;;;;5040609;28;20060;-72
2021/08/25 03:56:51;;;;;;;39.83;35.67;;;14.10;91.80;;;;;;5032387;28;20537;-73
2021/08/25 03:59:16;;;;;;;40.45;36.00;;;14.10;91.80;;;;;;5032032;28;20101;-75
2021/08/25 04:01:42;;;;;;;44.05;38.58;;;14.10;91.80;;;;;;5033559;28;20043;-72
2021/08/25 04:04:11;;;;;;;43.40;38.65;;;14.10;91.80;;;;;;5032127;28;20112;-72
2021/08/25 04:06:37;;;;;;;40.40;36.05;;;14.10;91.90;;;;;;5021655;28;20037;-72
2021/08/25 04:09:04;;;;;;;46.20;39.70;;;14.10;91.90;;;;;;5033021;28;20037;-74
2021/08/25 04:11:31;;;;;;;41.05;36.72;;;14.10;91.80;;;;;;5032214;28;20104;-72
2021/08/25 04:13:57;;;;;;;41.00;36.63;;;14.10;91.80;;;;;;5031748;28;20021;-79
2021/08/25 04:16:23;;;;;;;39.45;35.22;;;14.10;91.70;;;;;;5032346;28;20302;-74
2021/08/25 04:18:48;;;;;;;39.05;34.83;;;14.10;91.60;;;;;;5033322;28;20049;-72
2021/08/25 04:21:14;;;;;;;39.90;35.55;;;14.00;91.60;;;;;;5032443;28;20037;-72
2021/08/25 04:23:40;;;;;;;41.03;36.65;;;14.00;91.50;;;;;;5034119;28;20065;-71
2021/08/25 04:26:05;;;;;;;41.15;36.72;;;14.00;91.50;;;;;;5032782;28;20080;-72
2021/08/25 04:28:31;;;;;;;40.05;35.20;;;14.00;91.50;;;;;;5030694;28;20034;-72
2021/08/25 04:30:57;;;;;;;45.67;39.97;;;13.90;91.60;;;;;;5031307;28;20476;-72
2021/08/25 04:33:23;;;;;;;40.90;36.67;;;14.00;91.70;;;;;;5031376;28;20045;-72
2021/08/25 04:35:49;;;;;;;46.28;39.95;;;13.90;91.80;;;;;;5033096;28;20381;-73
2021/08/25 04:38:15;;;;;;;44.20;39.58;;;13.90;91.90;;;;;;5039435;28;20018;-74
2021/08/25 04:40:40;;;;;;;43.97;38.22;;;13.90;91.90;;;;;;5058597;28;20024;-80
2021/08/25 04:43:06;;;;;;;41.80;37.40;;;14.00;92.00;;;;;;5050087;28;20040;-73
2021/08/25 04:45:32;;;;;;;41.67;37.00;;;13.90;91.90;;;;;;5032616;28;20473;-71
2021/08/25 04:47:58;;;;;;;46.10;38.70;;;13.90;91.80;;;;;;5030983;28;20032;-72
2021/08/25 04:50:24;;;;;;;43.95;37.15;;;13.90;91.80;;;;;;5020563;28;20034;-72
2021/08/25 04:52:50;;;;;;;44.50;37.55;;;13.80;91.90;;;;;;5038358;28;20552;-73
2021/08/25 04:55:16;;;;;;;40.17;35.88;;;13.80;91.90;;;;;;5032069;28;20112;-72
2021/08/25 04:57:41;;;;;;;41.10;35.63;;;13.80;91.80;;;;;;5031325;28;20469;-72
2021/08/25 05:00:08;;;;;;;36.65;32.75;;;13.80;91.80;;;;;;5031545;28;20041;-73
2021/08/25 05:02:35;;;;;;;40.90;35.53;;;13.80;91.90;;;;;;5033679;28;20481;-73
2021/08/25 05:05:00;;;;;;;36.50;32.58;;;13.80;91.90;;;;;;5050777;28;20112;-72
2021/08/25 05:07:26;;;;;;;38.75;33.72;;;13.80;91.90;;;;;;5049232;28;20057;-73
2021/08/25 05:09:51;;;;;;;37.20;33.25;;;13.80;91.90;;;;;;5041751;28;20097;-73
2021/08/25 05:12:18;;;;;;;35.35;31.48;;;13.80;91.80;;;;;;5047019;28;20029;-72
2021/08/25 05:14:44;;;;;;;34.60;30.98;;;13.80;91.70;;;;;;5041026;28;20030;-73
2021/08/25 05:17:09;;;;;;;35.08;31.40;;;13.80;91.50;;;;;;5031541;28;20086;-73
2021/08/25 05:19:35;;;;;;;36.75;32.95;;;13.80;91.50;;;;;;5029202;28;20038;-74
2021/08/25 05:22:01;;;;;;;37.10;33.13;;;13.80;91.20;;;;;;5026497;28;20034;-74
2021/08/25 05:24:27;;;;;;;34.70;31.13;;;13.90;90.90;;;;;;5012187;28;20053;-73
2021/08/25 05:26:53;;;;;;;34.80;31.02;;;13.90;90.40;;;;;;5012447;28;20034;-72
2021/08/25 05:29:18;;;;;;;34.03;30.38;;;13.90;90.40;;;;;;5016951;28;20124;-72
2021/08/25 05:31:44;;;;;;;33.53;29.92;;;14.00;90.50;;;;;;5018342;28;20040;-73
2021/08/25 05:34:12;;;;;;;34.78;30.63;;;14.10;90.40;;;;;;5020643;28;20030;-72
2021/08/25 05:36:38;;;;;;;37.72;31.35;;;14.10;90.30;;;;;;5024968;28;20484;-72
2021/08/25 05:39:04;;;;;;;37.33;32.33;;;14.10;90.20;;;;;;5029513;28;20033;-72
2021/08/25 05:41:29;;;;;;;39.25;34.13;;;14.20;90.00;;;;;;5030151;28;20091;-71
2021/08/25 05:43:55;;;;;;;37.13;33.03;;;14.30;89.90;;;;;;5022426;28;20037;-75
2021/08/25 05:46:21;;;;;;;32.38;29.08;;;14.30;89.90;;;;;;5011605;28;20452;-70
2021/08/25 05:48:46;;;;;;;34.55;30.85;;;14.40;89.90;;;;;;5019197;28;20456;-70
2021/08/25 05:51:12;;;;;;;34.53;30.92;;;14.40;89.70;;;;;;5029371;28;20121;-70
2021/08/25 05:53:38;;;;;;;40.95;32.95;;;14.50;89.70;;;;;;5012522;28;20517;-70
2021/08/25 05:56:04;;;;;;;39.33;32.55;;;14.60;89.60;;;;;;5010391;28;20462;-74
2021/08/25 05:58:29;;;;;;;38.53;31.77;;;14.60;89.40;;;;;;5031646;28;20082;-70
2021/08/25 06:00:55;;;;;;;34.13;30.40;;;14.70;89.20;;;;;;5014816;28;20030;-75
2021/08/25 06:03:21;;;;;;;37.05;32.95;;;14.70;89.10;;;;;;5009929;28;20083;-70
2021/08/25 06:05:46;;;;;;;36.28;32.13;;;14.70;88.90;;;;;;5009283;28;20046;-70
2021/08/25 06:08:12;;;;;;;38.15;33.70;;;14.70;89.00;;;;;;5019781;28;20124;-72
2021/08/25 06:10:38;;;;;;;37.08;33.17;;;14.70;89.00;;;;;;5031031;28;20103;-71
2021/08/25 06:13:03;;;;;;;37.53;31.52;;;14.80;89.10;;;;;;5029606;28;20022;-70
2021/08/25 06:15:29;;;;;;;36.97;32.88;;;14.90;89.10;;;;;;5023656;28;20021;-72
2021/08/25 06:17:55;;;;;;;36.20;32.42;;;15.00;88.90;;;;;;5024170;28;20046;-71
2021/08/25 06:20:20;;;;;;;33.42;29.90;;;15.10;88.70;;;;;;5018186;28;20057;-70
2021/08/25 06:22:46;;;;;;;34.13;30.27;;;15.10;88.80;;;;;;5033143;28;20053;-71
2021/08/25 06:25:12;;;;;;;34.10;30.50;;;15.20;88.60;;;;;;5005247;28;20029;-70
2021/08/25 06:27:37;;;;;;;34.22;30.40;;;15.30;88.00;;;;;;5010397;28;20057;-70
2021/08/25 06:30:04;;;;;;;33.97;29.73;;;15.40;88.10;;;;;;5011572;28;20042;-70
2021/08/25 06:32:30;;;;;;;32.55;29.13;;;15.40;87.90;;;;;;5010086;28;20030;-71
2021/08/25 06:34:56;;;;;;;38.13;30.92;;;15.60;87.70;;;;;;5009730;28;20064;-71
2021/08/25 06:37:22;;;;;;;32.45;28.80;;;15.50;87.00;;;;;;5009498;28;20042;-70
2021/08/25 06:39:47;;;;;;;33.22;29.90;;;15.50;86.90;;;;;;5027709;28;20037;-70
2021/08/25 06:42:13;;;;;;;33.05;27.92;;;15.60;87.10;;;;;;5034839;28;20041;-76
2021/08/25 06:44:39;;;;;;;31.85;28.42;;;15.70;86.90;;;;;;5037627;28;20070;-70
2021/08/25 06:47:04;;;;;;;30.85;27.55;;;15.80;86.30;;;;;;5032778;28;20037;-71
2021/08/25 06:49:30;;;;;;;31.92;27.95;;;15.90;86.10;;;;;;5040822;28;20033;-71
2021/08/25 06:51:56;;;;;;;33.45;27.98;;;16.00;85.60;;;;;;5032485;28;20025;-71
2021/08/25 06:54:21;;;;;;;31.33;27.85;;;15.90;85.80;;;;;;5033184;28;20136;-75
2021/08/25 06:56:47;;;;;;;32.58;28.63;;;16.00;86.10;;;;;;5037914;28;20029;-71
2021/08/25 06:59:13;;;;;;;40.22;26.42;;;16.10;86.10;;;;;;5046200;28;20476;-71
2021/08/25 07:01:38;;;;;;;30.20;23.52;;;16.30;84.70;;;;;;5028636;28;20033;-71
2021/08/25 07:04:04;;;;;;;26.27;22.80;;;16.40;83.70;;;;;;5044448;28;20550;-71
2021/08/25 07:06:30;;;;;;;24.42;21.35;;;16.60;83.30;;;;;;5050362;28;20025;-74
2021/08/25 07:08:55;;;;;;;24.27;21.70;;;16.80;81.70;;;;;;5048303;28;20476;-71
2021/08/25 07:11:21;;;;;;;25.65;19.45;;;16.90;81.10;;;;;;5028705;28;20469;-71
2021/08/25 07:13:47;;;;;;;21.50;18.48;;;17.10;80.50;;;;;;5029927;28;20041;-70
2021/08/25 07:16:14;;;;;;;26.17;17.77;;;17.20;78.30;;;;;;5029553;28;20499;-71
2021/08/25 07:18:43;;;;;;;19.05;15.75;;;17.30;77.50;;;;;;5028515;28;20470;-71
2021/08/25 07:21:12;;;;;;;20.83;16.98;;;17.40;76.50;;;;;;5038273;28;20040;-71
2021/08/25 07:23:38;;;;;;;20.40;16.23;;;17.30;77.00;;;;;;5037520;28;20037;-70
2021/08/25 07:26:03;;;;;;;18.60;15.82;;;17.40;77.10;;;;;;5042135;28;20090;-70
2021/08/25 07:28:29;;;;;;;21.17;16.27;;;17.60;75.80;;;;;;5043968;28;20049;-73
2021/08/25 07:30:55;;;;;;;19.98;15.35;;;17.80;75.30;;;;;;5029765;28;20064;-72
2021/08/25 07:33:22;;;;;;;19.10;15.50;;;18.00;75.70;;;;;;5030229;28;20126;-73
2021/08/25 07:35:48;;;;;;;17.48;14.63;;;18.10;74.00;;;;;;5048854;28;20044;-71
2021/08/25 07:38:15;;;;;;;20.58;15.18;;;18.30;74.30;;;;;;5035037;28;20040;-71
2021/08/25 07:40:41;;;;;;;17.70;14.50;;;18.50;72.90;;;;;;5028587;28;20487;-71
2021/08/25 07:43:07;;;;;;;17.77;14.60;;;18.60;72.20;;;;;;5046802;28;20048;-71
2021/08/25 07:45:35;;;;;;;21.98;13.63;;;18.70;72.30;;;;;;5034373;28;20381;-71
2021/08/25 07:48:01;;;;;;;19.15;14.23;;;18.70;71.60;;;;;;5047695;28;20033;-77
2021/08/25 07:50:26;;;;;;;18.13;13.38;;;18.90;71.10;;;;;;5020871;28;20040;-71
2021/08/25 07:52:52;;;;;;;15.05;12.93;;;18.80;71.50;;;;;;5020633;28;20465;-71
2021/08/25 07:55:18;;;;;;;17.90;13.18;;;19.10;71.00;;;;;;5015416;28;20435;-71
2021/08/25 07:57:43;;;;;;;19.83;13.00;;;18.90;70.20;;;;;;5027589;28;20029;-71
2021/08/25 08:00:10;;;;;;;16.73;12.70;;;19.00;70.70;;;;;;5009157;28;20092;-70
2021/08/25 08:02:35;;;;;;;19.50;13.20;;;19.00;69.50;;;;;;5024765;28;20037;-71
2021/08/25 08:05:03;;;;;;;19.80;13.10;;;19.20;69.50;;;;;;5020726;28;20403;-71
2021/08/25 08:07:29;;;;;;;19.02;13.40;;;19.30;69.20;;;;;;5008884;28;20026;-71
2021/08/25 08:09:55;;;;;;;15.70;12.57;;;19.30;68.70;;;;;;5009701;28;20129;-70
2021/08/25 08:12:20;;;;;;;15.25;12.00;;;19.10;68.70;;;;;;5012446;28;20119;-71
2021/08/25 08:14:46;;;;;;;17.27;11.43;;;19.20;69.60;;;;;;5029568;28;20059;-76
2021/08/25 08:17:12;;;;;;;15.88;12.95;;;19.20;68.80;;;;;;5013489;28;20507;-71
2021/08/25 08:19:38;;;;;;;16.15;11.45;;;19.50;67.80;;;;;;5016287;28;20048;-71
2021/08/25 08:22:04;;;;;;;15.23;11.88;;;19.80;67.60;;;;;;5025537;28;20026;-71
2021/08/25 08:24:30;;;;;;;15.07;10.52;;;19.80;65.90;;;;;;5009563;28;20065;-72
2021/08/25 08:26:58;;;;;;;17.33;10.48;;;19.80;66.40;;;;;;5007958;28;20029;-72
2021/08/25 08:29:24;;;;;;;16.23;9.85;;;20.00;65.70;;;;;;5012879;28;20042;-71
2021/08/25 08:31:50;;;;;;;15.93;10.93;;;20.30;66.70;;;;;;5009433;28;20083;-72
2021/08/25 08:34:15;;;;;;;15.43;10.95;;;20.40;64.50;;;;;;5009060;28;20438;-71
2021/08/25 08:36:42;;;;;;;12.77;8.93;;;20.40;64.70;;;;;;5009518;28;20042;-70
2021/08/25 08:39:07;;;;;;;16.73;10.07;;;20.20;64.00;;;;;;5010456;28;20033;-70
2021/08/25 08:41:33;;;;;;;15.65;9.88;;;20.40;64.30;;;;;;5012995;28;20394;-70
2021/08/25 08:43:59;;;;;;;12.48;8.68;;;20.50;65.20;;;;;;5013413;28;20469;-70
2021/08/25 08:46:25;;;;;;;18.67;9.73;;;20.60;63.00;;;;;;5013986;28;20450;-70
2021/08/25 08:48:52;;;;;;;14.50;9.75;;;20.80;62.30;;;;;;5026048;28;20432;-74
2021/08/25 08:51:24;;;;;;;14.40;8.60;;;21.00;62.00;;;;;;5009770;28;20026;-72
2021/08/25 08:53:51;;;;;;;18.73;9.75;;;21.10;61.00;;;;;;5007633;28;20034;-71
2021/08/25 08:56:17;;;;;;;17.85;9.98;;;21.10;60.90;;;;;;5012158;28;20034;-71
2021/08/25 08:58:44;;;;;;;13.20;8.13;;;21.00;61.80;;;;;;5012779;28;20037;-70
2021/08/25 09:01:10;;;;;;;11.20;7.57;;;21.10;60.90;;;;;;5010958;28;20026;-71
2021/08/25 09:03:38;;;;;;;16.15;8.05;;;21.60;60.60;;;;;;5011062;28;20385;-70
2021/08/25 09:06:05;;;;;;;14.68;8.02;;;21.40;57.40;;;;;;5023109;28;20354;-72
2021/08/25 09:08:33;;;;;;;14.98;9.57;;;21.50;60.10;;;;;;5012488;28;20044;-71
2021/08/25 09:11:03;;;;;;;14.77;9.57;;;21.50;60.30;;;;;;5011010;28;20034;-71
2021/08/25 09:13:47;;;;;;;13.30;9.02;;;21.50;61.00;;;;;;5010145;28;20034;-72
2021/08/25 09:16:25;;;;;;;15.03;7.93;;;21.70;61.30;;;;;;5011139;28;20041;-71
2021/08/25 09:19:04;;;;;;;13.50;6.82;;;21.60;57.00;;;;;;5011920;28;20064;-71
2021/08/25 09:21:33;;;;;;;14.32;6.97;;;21.40;55.50;;;;;;5011726;28;20509;-72
2021/08/25 09:23:59;;;;;;;11.60;7.07;;;21.40;56.80;;;;;;5010865;28;20541;-75
2021/08/25 09:26:24;;;;;;;14.23;7.55;;;21.60;58.30;;;;;;5011540;28;20108;-70
2021/08/25 09:28:51;;;;;;;16.88;8.00;;;21.90;58.10;;;;;;5011294;28;20046;-71
2021/08/25 09:31:17;;;;;;;12.23;7.10;;;21.80;55.40;;;;;;5038615;28;20155;-72
2021/08/25 09:33:45;;;;;;;13.48;6.63;;;21.70;54.60;;;;;;5047261;28;20025;-71
2021/08/25 09:36:13;;;;;;;15.63;6.97;;;21.80;55.60;;;;;;5040769;28;20489;-72
2021/08/25 09:38:40;;;;;;;16.58;7.40;;;21.80;53.80;;;;;;5033243;28;20423;-72
2021/08/25 09:41:08;;;;;;;14.80;7.95;;;21.80;56.40;;;;;;5051240;28;20485;-71
2021/08/25 09:43:39;;;;;;;13.73;8.02;;;21.90;55.90;;;;;;5046112;28;20029;-73
2021/08/25 09:46:14;;;;;;;12.40;7.88;;;22.10;54.70;;;;;;5026258;28;20477;-71
2021/08/25 09:48:42;;;;;;;14.05;7.82;;;22.10;55.10;;;;;;5025233;28;20041;-71
2021/08/25 09:51:09;;;;;;;13.73;8.18;;;22.10;55.00;;;;;;5023936;28;20034;-72
2021/08/25 09:53:35;;;;;;;12.15;6.50;;;22.00;55.00;;;;;;5029556;28;20033;-71
2021/08/25 09:56:01;;;;;;;12.13;6.85;;;22.10;55.50;;;;;;5017462;28;20025;-73
2021/08/25 09:58:26;;;;;;;13.43;6.70;;;22.60;54.80;;;;;;5037939;28;20552;-75
2021/08/25 10:00:54;;;;;;;13.52;6.45;;;22.60;52.40;;;;;;5032208;28;20045;-72
2021/08/25 10:03:21;;;;;;;13.05;6.35;;;22.40;54.20;;;;;;5019326;28;20125;-72
2021/08/25 10:05:47;;;;;;;16.73;5.03;;;22.80;52.80;;;;;;5030552;28;20076;-72
2021/08/25 10:08:15;;;;;;;11.07;5.03;;;23.20;50.80;;;;;;5029192;28;20380;-73
2021/08/25 10:10:41;;;;;;;12.82;6.10;;;23.30;50.20;;;;;;5030681;28;20095;-73
2021/08/25 10:13:07;;;;;;;11.43;5.80;;;23.00;52.00;;;;;;5031492;28;20481;-73
2021/08/25 10:15:34;;;;;;;12.77;5.82;;;22.90;50.80;;;;;;5021644;28;20042;-72
2021/08/25 10:18:30;;;;;;;11.73;7.10;;;22.60;48.90;;;;;;5030401;28;20048;-71
2021/08/25 10:21:00;;;;;;;11.82;6.72;;;22.80;51.30;;;;;;5028463;28;20112;-72
2021/08/25 10:23:57;;;;;;;9.43;4.45;;;23.00;50.50;;;;;;5037157;28;20054;-71
2021/08/25 10:26:23;;;;;;;10.05;4.50;;;23.00;48.30;;;;;;5015457;28;20029;-72
2021/08/25 10:28:58;;;;;;;9.23;4.35;;;22.80;46.30;;;;;;5038998;28;20048;-72
2021/08/25 10:31:25;;;;;;;8.63;4.57;;;23.00;46.70;;;;;;5029750;28;20093;-70
2021/08/25 10:34:13;;;;;;;8.52;4.25;;;22.50;46.80;;;;;;5020934;28;20026;-71
2021/08/25 10:36:39;;;;;;;10.48;4.35;;;22.40;47.80;;;;;;5005433;28;20030;-71
2021/08/25 10:39:31;;;;;;;8.32;4.35;;;23.00;46.60;;;;;;5019880;28;20045;-72
2021/08/25 10:42:00;;;;;;;9.88;3.58;;;23.00;47.90;;;;;;5018506;28;20033;-72
2021/08/25 10:44:41;;;;;;;9.63;4.72;;;23.00;45.20;;;;;;5017234;28;20089;-71
2021/08/25 10:47:08;;;;;;;11.75;4.80;;;23.00;45.50;;;;;;5020799;28;20063;-72
2021/08/25 10:49:37;;;;;;;7.88;3.85;;;23.10;47.40;;;;;;5023692;28;20041;-72
2021/08/25 10:52:28;;;;;;;8.63;4.38;;;23.60;45.90;;;;;;5018610;28;20373;-72
2021/08/25 10:54:58;;;;;;;8.82;4.38;;;23.80;44.90;;;;;;5028844;28;20128;-72
2021/08/25 10:57:25;;;;;;;12.35;5.45;;;24.00;45.10;;;;;;5017548;28;20423;-71
2021/08/25 10:59:51;;;;;;;11.60;5.00;;;23.60;46.10;;;;;;5031105;28;20040;-72
2021/08/25 11:02:17;;;;;;;11.65;4.18;;;23.60;46.10;;;;;;5026772;28;20036;-72
2021/08/25 11:04:43;;;;;;;9.65;4.07;;;23.20;46.40;;;;;;5029398;28;20100;-71
2021/08/25 11:07:11;;;;;;;8.85;4.00;;;23.20;45.50;;;;;;5030248;28;20086;-70
2021/08/25 11:09:40;;;;;;;8.55;4.55;;;23.30;44.20;;;;;;5028570;28;20041;-71
2021/08/25 11:12:11;;;;;;;10.27;4.78;;;23.30;44.70;;;;;;5016216;28;20397;-72
2021/08/25 11:14:45;;;;;;;10.18;5.50;;;23.10;44.70;;;;;;5016906;28;20029;-72
2021/08/25 11:17:26;;;;;;;8.88;4.47;;;22.70;44.90;;;;;;5028378;28;20077;-75
2021/08/25 11:19:59;;;;;;;9.23;4.68;;;22.80;47.20;;;;;;5019592;28;20029;-71
2021/08/25 11:22:31;;;;;;;8.45;4.13;;;22.90;45.50;;;;;;5033873;28;20033;-71
2021/08/25 11:25:06;;;;;;;8.23;4.03;;;23.20;46.80;;;;;;5028720;28;20421;-72
2021/08/25 11:27:39;;;;;;;8.57;4.03;;;23.70;45.90;;;;;;5029110;28;20030;-72
2021/08/25 11:30:20;;;;;;;10.90;4.88;;;24.00;41.80;;;;;;5023146;28;20141;-73
2021/08/25 11:33:09;;;;;;;9.57;4.68;;;23.60;43.50;;;;;;5015005;28;20469;-72
2021/08/25 11:35:37;;;;;;;9.73;4.45;;;23.70;43.90;;;;;;5008914;28;20396;-71
2021/08/25 11:38:08;;;;;;;9.65;4.63;;;23.50;45.20;;;;;;5011104;28;20060;-72
2021/08/25 11:40:39;;;;;;;9.23;5.38;;;23.80;45.80;;;;;;5020247;28;20033;-72
2021/08/25 11:43:16;;;;;;;9.85;5.82;;;23.40;45.80;;;;;;5016090;28;20453;-71
2021/08/25 11:45:44;;;;;;;10.98;5.45;;;23.10;46.80;;;;;;5027085;28;20044;-71
2021/08/25 11:48:10;;;;;;;9.73;5.28;;;23.10;47.10;;;;;;5025400;28;20034;-71
2021/08/25 11:50:39;;;;;;;12.57;4.90;;;23.20;46.60;;;;;;5010718;28;20022;-70
2021/08/25 11:53:16;;;;;;;9.18;4.93;;;23.20;48.30;;;;;;5006009;28;20485;-70
2021/08/25 11:55:43;;;;;;;10.23;5.38;;;23.30;46.60;;;;;;5009320;28;20536;-72
2021/08/25 11:58:38;;;;;;;10.55;5.50;;;23.50;46.80;;;;;;5007302;28;20089;-75
2021/08/25 12:01:18;;;;;;;10.32;5.90;;;23.50;46.50;;;;;;5009226;28;20125;-71
2021/08/25 12:03:44;;;;;;;9.77;5.63;;;23.60;46.40;;;;;;5023435;28;20021;-70
2021/08/25 12:06:15;;;;;;;9.13;5.45;;;23.70;44.60;;;;;;5019624;28;20038;-71
2021/08/25 12:08:51;;;;;;;10.30;5.80;;;23.80;45.10;;;;;;5020939;28;20041;-71
2021/08/25 12:11:19;;;;;;;11.27;6.05;;;23.70;45.80;;;;;;5020473;28;20050;-71
2021/08/25 12:13:46;;;;;;;11.32;6.13;;;23.80;45.00;;;;;;5026727;28;20026;-71
2021/08/25 12:16:32;;;;;;;10.43;5.72;;;23.60;45.10;;;;;;5032788;28;20109;-70
2021/08/25 12:19:03;;;;;;;11.15;5.38;;;23.30;45.90;;;;;;5029365;28;20370;-70
2021/08/25 12:21:36;;;;;;;9.65;5.50;;;23.50;46.30;;;;;;5021148;28;20049;-70
2021/08/25 12:24:08;;;;;;;11.30;5.43;;;23.60;45.80;;;;;;5035601;28;20493;-71
2021/08/25 12:26:37;;;;;;;10.68;5.72;;;23.70;45.70;;;;;;5032923;28;20322;-71
2021/08/25 12:29:05;;;;;;;11.35;6.20;;;23.60;45.40;;;;;;5032424;28;20524;-71
2021/08/25 12:31:32;;;;;;;10.48;5.63;;;23.90;44.70;;;;;;5030142;28;20692;-70
2021/08/25 12:34:11;;;;;;;9.88;5.38;;;24.10;44.80;;;;;;5031752;28;20041;-70